Arnoldsville, GA

3:28 PM EST on November 23, 2014 (GMT -0500)
Wyndfield | Change Station
CLOSE
Current Station
Personal Weather Station
Location: Athens-Clarke County, GA
Elevation: 647 ft
Nearby Weather Stations

Elev 647 ft 33.91 °N, 83.30 °W | Updated 7 seconds ago

Rain
Rain
51.4 °F
Feels Like 51.4 °F
N
0.0
Wind Variable Wind from West
Gusts 0.0 mph

Today
High -- | Low -- °F
--% Chance of Precip.
Yesterday
High -- | Low -- °F
Precip. -- in
7:12 AM 5:26 PM
New Moon, 2% visible
Pressure 29.83 in
Visibility 2.0 miles
Clouds Overcast 400 ft
Dew Point 32 °F
Humidity 48%
Rainfall 1.25 in
Snow Depth Not available.
UV 1 out of 12
Pollen .30 out of 12
Air Quality Not available.
Flu Activity Not available.
METAR KAHN 231951Z 08008KT 2SM RA BR OVC004 09/09 A2982 RMK AO2 VIS 1 1/4V3 SLP100 P0008 T00940089 $

More Conditions Fewer Conditions

Pressure 29.83 in
Visibility 2.0 miles
Clouds Overcast 400 ft
Dew Point 32 °F
Humidity 48%
Rainfall 1.25 in
Snow Depth Not available.
UV 1 out of 12
Pollen .30 out of 12
Air Quality Not available.
Flu Activity Not available.
METAR KAHN 231951Z 08008KT 2SM RA BR OVC004 09/09 A2982 RMK AO2 VIS 1 1/4V3 SLP100 P0008 T00940089 $

More Conditions Fewer Conditions

10-Day Weather Forecast

Almanac

Astronomy

Nov. 23, 2014 Rise Set
Actual Time
Civil Twilight
Nautical Twilight
Astronomical Twilight
Moon
Length of Visible Light
Length of Day
Tomorrow will be .
, % of the Moon is Illuminated

Today's Extremes

State Highs State Lows

Community

WunderPhotos

Upload Photos

1,773,169 photos uploaded!

WunderBlogs® & News

Nearby

Air Quality

  Air Quality AQ Index Pollutant
Not available.

Snow Depth

Station Depth Elevation

Earthquake Activity

City Distance Mag. Time & Date
Minimum magnitude displayed is 2.5.

Coastal Water Temperatures

Place Temperature

Nearby Weather Stations